createdAt,value
2019-04-27T00:02:55.847Z,99480.63
2019-04-27T00:08:06.115Z,99484.51
2019-04-27T00:13:12.942Z,99502.25
2019-04-27T00:18:30.031Z,99515.77
2019-04-27T00:23:35.696Z,99516.05
2019-04-27T00:28:41.043Z,99502.62
2019-04-27T00:33:46.515Z,99491.81
2019-04-27T00:38:58.045Z,99504.55
2019-04-27T00:44:03.839Z,99499.44
2019-04-27T00:49:09.632Z,99508.09
2019-04-27T00:54:14.967Z,99519.87
2019-04-27T00:59:36.340Z,99517.32
2019-04-27T01:04:42.850Z,99528.39
2019-04-27T01:09:48.600Z,99505.26
2019-04-27T01:14:53.974Z,99514.06
2019-04-27T01:19:59.598Z,99521.03
2019-04-27T01:25:05.536Z,99504.97
2019-04-27T01:30:21.112Z,99519.47
2019-04-27T01:35:26.381Z,99524.28
2019-04-27T01:40:31.763Z,99527.66
2019-04-27T01:45:39.099Z,99533.87
2019-04-27T01:50:44.878Z,99549.27
2019-04-27T01:55:50.344Z,99539.78
2019-04-27T02:01:04.091Z,99553.61
2019-04-27T02:06:09.629Z,99547.84
2019-04-27T02:11:15.272Z,99569.81
2019-04-27T02:16:20.700Z,99565.79
2019-04-27T02:21:26.157Z,99575.98
2019-04-27T02:26:31.425Z,99557.31
2019-04-27T02:31:46.122Z,99574.41
2019-04-27T02:36:51.494Z,99609.91
2019-04-27T02:41:56.830Z,99611.03
2019-04-27T02:47:02.155Z,99600.05
2019-04-27T02:52:22.679Z,99608.21
2019-04-27T02:57:30.163Z,99611.55
2019-04-27T03:02:41.200Z,99623.88
2019-04-27T03:07:46.834Z,99629.84
2019-04-27T03:13:00.506Z,99641.69
2019-04-27T03:18:12.317Z,99648.48
2019-04-27T03:23:19.869Z,99651.52
2019-04-27T03:28:24.769Z,99661.33
2019-04-27T03:33:32.549Z,99694.48
2019-04-27T03:38:39.421Z,99707.23
2019-04-27T03:43:44.373Z,99702.69
2019-04-27T03:48:50.174Z,99687.03
2019-04-27T03:54:10.952Z,99712.13
2019-04-27T03:59:32.512Z,99716.38
2019-04-27T04:04:36.999Z,99725.49
2019-04-27T04:09:42.352Z,99729.11
2019-04-27T04:14:49.340Z,99741.61
2019-04-27T04:20:00.342Z,99755.28
2019-04-27T04:25:01.936Z,99758.61
2019-04-27T04:30:09.693Z,99776.72
2019-04-27T04:35:23.589Z,99780.98
2019-04-27T04:40:35.554Z,99790.38
2019-04-27T04:45:50.084Z,99789.92
2019-04-27T04:50:55.877Z,99807.77
2019-04-27T04:56:01.351Z,99796.20
2019-04-27T05:01:06.625Z,99781.51
2019-04-27T05:06:11.998Z,99817.20
2019-04-27T05:11:17.345Z,99832.84
2019-04-27T05:16:22.638Z,99836.27
2019-04-27T05:21:33.489Z,99844.20
2019-04-27T05:26:39.933Z,99855.98
2019-04-27T05:31:45.314Z,99843.31
2019-04-27T05:36:52.642Z,99869.97
2019-04-27T05:41:59.532Z,99854.83
2019-04-27T05:47:14.317Z,99856.29
2019-04-27T05:52:29.331Z,99875.05
2019-04-27T05:57:35.273Z,99893.09
2019-04-27T06:02:40.806Z,99891.16
2019-04-27T06:07:46.126Z,99900.72
2019-04-27T06:12:51.885Z,99920.20
2019-04-27T06:17:57.547Z,99911.30
2019-04-27T06:23:03.055Z,99926.84
2019-04-27T06:28:09.198Z,99914.14
2019-04-27T06:33:27.195Z,99940.06
2019-04-27T06:38:22.242Z,99946.47
2019-04-27T06:43:29.258Z,99956.23
2019-04-27T06:48:34.868Z,99963.83
2019-04-27T06:53:40.428Z,99975.98
2019-04-27T06:58:45.907Z,99982.52
2019-04-27T07:03:51.519Z,99983.27
2019-04-27T07:08:56.991Z,100010.30
2019-04-27T07:14:02.308Z,100028.64
2019-04-27T07:19:09.375Z,100025.84
2019-04-27T07:24:14.873Z,100036.70
2019-04-27T07:29:23.092Z,100021.86
2019-04-27T07:34:30.519Z,100030.56
2019-04-27T07:39:36.156Z,100043.12
2019-04-27T07:44:50.150Z,100065.83
2019-04-27T07:49:55.563Z,100064.63
2019-04-27T07:55:01.114Z,100074.63
2019-04-27T08:00:09.326Z,100077.95
2019-04-27T08:05:14.970Z,100086.08
2019-04-27T08:10:21.021Z,100109.80
2019-04-27T08:15:26.481Z,100084.58
2019-04-27T08:20:31.897Z,100097.52
2019-04-27T08:25:39.084Z,100098.80
2019-04-27T08:30:52.935Z,100115.43
2019-04-27T08:35:59.059Z,100104.56
2019-04-27T08:41:04.820Z,100115.46
2019-04-27T08:46:10.414Z,100130.67
2019-04-27T08:51:16.270Z,100135.70
2019-04-27T08:56:21.761Z,100115.05
2019-04-27T09:01:27.197Z,100133.44
2019-04-27T09:06:32.796Z,100151.57
2019-04-27T09:11:49.384Z,100148.90
2019-04-27T09:17:11.580Z,100172.56
2019-04-27T09:22:19.226Z,100187.92
2019-04-27T09:27:23.827Z,100194.62
2019-04-27T09:32:29.575Z,100207.09
2019-04-27T09:37:38.072Z,100197.60
2019-04-27T09:42:43.395Z,100185.19
2019-04-27T09:47:48.657Z,100188.91
2019-04-27T09:52:55.736Z,100170.34
2019-04-27T09:58:01.607Z,100182.85
2019-04-27T10:03:07.056Z,100183.55
2019-04-27T10:08:12.540Z,100181.52
2019-04-27T10:13:18.209Z,100174.30
2019-04-27T10:18:23.585Z,100201.88
2019-04-27T10:23:30.885Z,100206.53
2019-04-27T10:28:37.283Z,100220.80
2019-04-27T10:33:45.922Z,100233.81
2019-04-27T10:38:51.721Z,100226.01
2019-04-27T10:43:57.217Z,100226.83
2019-04-27T10:49:02.697Z,100218.92
2019-04-27T10:54:08.402Z,100221.62
2019-04-27T10:59:13.776Z,100233.33
2019-04-27T11:04:32.748Z,100236.30
2019-04-27T11:09:38.081Z,100219.45
2019-04-27T11:14:43.596Z,100243.63
2019-04-27T11:19:50.545Z,100254.69
2019-04-27T11:24:56.376Z,100259.42
2019-04-27T11:30:02.138Z,100241.39
2019-04-27T11:35:20.551Z,100259.58
2019-04-27T11:40:26.897Z,100272.32
2019-04-27T11:45:36.772Z,100263.59
2019-04-27T11:50:42.473Z,100271.61
2019-04-27T11:55:47.996Z,100274.86
2019-04-27T12:00:53.348Z,100277.53
2019-04-27T12:06:00.281Z,100289.77
2019-04-27T12:11:06.158Z,100293.22
2019-04-27T12:16:11.623Z,100300.89
2019-04-27T12:21:17.036Z,100307.89
2019-04-27T12:26:31.298Z,100308.30
2019-04-27T12:31:38.996Z,100315.98
2019-04-27T12:36:45.908Z,100314.02
2019-04-27T12:41:53.729Z,100304.34
2019-04-27T12:47:02.678Z,100322.20
2019-04-27T12:52:10.268Z,100322.24
2019-04-27T12:57:27.479Z,100322.81
2019-04-27T13:02:34.318Z,100329.63
2019-04-27T13:07:39.807Z,100326.77
2019-04-27T13:12:46.122Z,100314.92
2019-04-27T13:17:52.198Z,100330.22
2019-04-27T13:22:57.584Z,100339.53
2019-04-27T13:28:03.244Z,100336.80
2019-04-27T13:33:08.834Z,100333.91
2019-04-27T13:38:16.156Z,100338.53
2019-04-27T13:43:28.871Z,100336.20
2019-04-27T13:48:53.504Z,100346.55
2019-04-27T13:53:58.976Z,100360.62
2019-04-27T13:59:07.341Z,100352.34
2019-04-27T14:04:11.791Z,100365.22
2019-04-27T14:09:17.456Z,100360.02
2019-04-27T14:14:22.980Z,100364.45
2019-04-27T14:19:28.584Z,100351.69
2019-04-27T14:24:41.776Z,100366.56
2019-04-27T14:29:48.947Z,100375.81
2019-04-27T14:34:54.446Z,100361.69
2019-04-27T14:40:00.117Z,100372.06
2019-04-27T14:45:09.054Z,100369.18
2019-04-27T14:50:14.830Z,100367.43
2019-04-27T14:55:20.246Z,100354.48
2019-04-27T15:00:25.898Z,100390.59
2019-04-27T15:05:31.792Z,100391.84
2019-04-27T15:10:37.476Z,100392.38
2019-04-27T15:15:43.244Z,100394.22
2019-04-27T15:20:49.290Z,100400.00
2019-04-27T15:25:54.867Z,100401.67
2019-04-27T15:31:26.300Z,100408.76
2019-04-27T15:36:39.925Z,100402.47
2019-04-27T15:41:51.324Z,100417.67
2019-04-27T15:46:57.976Z,100422.93
2019-04-27T15:52:04.680Z,100406.67
2019-04-27T15:57:13.696Z,100429.59
2019-04-27T16:02:18.549Z,100427.66
2019-04-27T16:07:25.271Z,100438.12
2019-04-27T16:12:31.287Z,100450.06
2019-04-27T16:17:38.433Z,100446.36
2019-04-27T16:22:44.129Z,100457.58
2019-04-27T16:27:49.978Z,100437.39
2019-04-27T16:32:55.447Z,100466.85
2019-04-27T16:38:26.644Z,100464.63
2019-04-27T16:43:32.799Z,100458.97
2019-04-27T16:48:38.861Z,100469.86
2019-04-27T16:53:44.586Z,100474.61
2019-04-27T16:58:56.821Z,100474.14
2019-04-27T17:03:59.292Z,100483.08
2019-04-27T17:09:09.413Z,100487.77
2019-04-27T17:14:22.702Z,100494.06
2019-04-27T17:19:35.966Z,100493.38
2019-04-27T17:24:45.232Z,100500.27
2019-04-27T17:29:49.982Z,100501.67
2019-04-27T17:34:55.623Z,100503.25
2019-04-27T17:40:01.676Z,100493.78
2019-04-27T17:45:09.011Z,100510.67
2019-04-27T17:50:18.481Z,100518.42
2019-04-27T17:55:24.294Z,100510.12
2019-04-27T18:00:32.909Z,100518.81
2019-04-27T18:05:38.981Z,100520.30
2019-04-27T18:10:45.618Z,100509.45
2019-04-27T18:15:54.127Z,100520.66
2019-04-27T18:20:58.387Z,100525.86
2019-04-27T18:26:17.425Z,100536.45
2019-04-27T18:31:21.607Z,100544.95
2019-04-27T18:36:29.427Z,100553.02
2019-04-27T18:41:34.559Z,100551.55
2019-04-27T18:46:39.967Z,100552.81
2019-04-27T18:51:57.935Z,100545.08
2019-04-27T18:57:02.889Z,100547.84
2019-04-27T19:02:08.676Z,100553.66
2019-04-27T19:07:14.368Z,100557.88
2019-04-27T19:12:20.545Z,100561.95
2019-04-27T19:17:28.093Z,100564.27
2019-04-27T19:22:34.711Z,100567.00
2019-04-27T19:27:49.067Z,100557.69
2019-04-27T19:32:54.544Z,100567.17
2019-04-27T19:38:00.071Z,100580.91
2019-04-27T19:43:05.786Z,100580.72
2019-04-27T19:48:11.178Z,100589.07
2019-04-27T19:53:16.696Z,100584.34
2019-04-27T19:58:23.510Z,100597.72
2019-04-27T20:03:34.548Z,100596.95
2019-04-27T20:08:42.297Z,100600.59
2019-04-27T20:13:47.877Z,100614.70
2019-04-27T20:18:53.327Z,100618.65
2019-04-27T20:23:59.029Z,100627.90
2019-04-27T20:29:04.867Z,100645.27
2019-04-27T20:34:10.420Z,100645.27
2019-04-27T20:39:16.464Z,100640.74
2019-04-27T20:44:22.787Z,100644.13
2019-04-27T20:49:28.397Z,100650.84
2019-04-27T20:54:33.866Z,100654.23
2019-04-27T20:59:39.186Z,100641.78
2019-04-27T21:04:45.224Z,100664.31
2019-04-27T21:09:50.799Z,100644.48
2019-04-27T21:14:56.164Z,100644.48
2019-04-27T21:20:01.626Z,100658.77
2019-04-27T21:25:07.546Z,100659.48
2019-04-27T21:30:13.370Z,100660.48
2019-04-27T21:35:20.780Z,100669.27
2019-04-27T21:40:26.156Z,100683.98
2019-04-27T21:45:31.889Z,100670.16
2019-04-27T21:50:37.531Z,100664.08
2019-04-27T21:55:43.146Z,100670.53
2019-04-27T22:00:57.069Z,100678.47
2019-04-27T22:06:02.679Z,100677.61
2019-04-27T22:11:08.285Z,100676.77
2019-04-27T22:16:13.679Z,100680.42
2019-04-27T22:21:19.185Z,100678.00
2019-04-27T22:26:24.805Z,100684.61
2019-04-27T22:31:31.342Z,100678.34
2019-04-27T22:36:36.864Z,100672.75
2019-04-27T22:41:52.584Z,100673.38
2019-04-27T22:46:58.384Z,100674.91
2019-04-27T22:52:03.797Z,100673.11
2019-04-27T22:57:18.026Z,100662.09
2019-04-27T23:02:31.878Z,100661.39
2019-04-27T23:07:37.579Z,100661.13
2019-04-27T23:12:43.009Z,100654.58
2019-04-27T23:17:54.658Z,100661.37
2019-04-27T23:23:01.145Z,100662.98
2019-04-27T23:28:07.731Z,100668.20
2019-04-27T23:33:13.343Z,100665.41
2019-04-27T23:38:20.571Z,100668.94
2019-04-27T23:43:26.342Z,100669.82
2019-04-27T23:48:32.271Z,100670.53
2019-04-27T23:53:38.386Z,100670.90
2019-04-27T23:58:43.809Z,100668.05
